createdAt,value
2019-05-21T00:01:09.072Z,4.03
2019-05-21T00:04:27.153Z,4.07
2019-05-21T00:07:13.351Z,3.93
2019-05-21T00:10:12.866Z,4.23
2019-05-21T00:15:41.640Z,3.60
2019-05-21T00:22:08.637Z,3.77
2019-05-21T00:24:47.266Z,3.40
2019-05-21T00:30:35.769Z,3.90
2019-05-21T00:45:02.727Z,3.93
2019-05-21T00:47:17.719Z,4.00
2019-05-21T00:57:55.780Z,4.57
2019-05-21T01:10:06.344Z,4.40
2019-05-21T01:13:33.895Z,4.40
2019-05-21T01:16:32.357Z,4.63
2019-05-21T01:19:37.756Z,4.70
2019-05-21T01:22:52.895Z,5.77
2019-05-21T01:25:56.438Z,5.10
2019-05-21T01:28:41.109Z,4.87
2019-05-21T01:31:57.921Z,5.47
2019-05-21T01:35:17.311Z,5.57
2019-05-21T01:38:21.094Z,6.57
2019-05-21T01:41:29.625Z,6.13
2019-05-21T01:47:49.415Z,5.90
2019-05-21T01:51:56.731Z,6.27
2019-05-21T02:03:54.870Z,6.17
2019-05-21T02:07:06.306Z,5.80
2019-05-21T02:10:19.335Z,6.30
2019-05-21T02:16:27.643Z,7.20
2019-05-21T02:26:59.951Z,7.40
2019-05-21T02:29:50.068Z,7.43
2019-05-21T02:35:26.944Z,7.47
2019-05-21T02:40:31.930Z,7.60
2019-05-21T02:43:14.235Z,7.80
2019-05-21T02:46:27.979Z,7.50
2019-05-21T02:49:03.769Z,8.00
2019-05-21T02:51:50.466Z,8.17
2019-05-21T02:54:40.260Z,8.50
2019-05-21T02:57:10.866Z,7.97
2019-05-21T03:00:03.294Z,8.13
2019-05-21T03:05:49.159Z,8.53
2019-05-21T03:08:34.073Z,8.23
2019-05-21T03:11:28.339Z,8.43
2019-05-21T03:14:18.105Z,9.20
2019-05-21T03:17:07.546Z,8.77
2019-05-21T03:19:44.572Z,9.03
2019-05-21T03:22:21.172Z,9.20
2019-05-21T03:25:10.610Z,9.07
2019-05-21T03:28:10.602Z,9.40
2019-05-21T03:33:42.217Z,9.77
2019-05-21T03:42:49.980Z,9.60
2019-05-21T03:45:49.125Z,9.13
2019-05-21T03:48:27.109Z,8.97
2019-05-21T03:51:13.722Z,10.37
2019-05-21T04:03:06.782Z,9.87
2019-05-21T04:08:42.327Z,10.03
2019-05-21T04:19:46.069Z,11.13
2019-05-21T04:23:32.796Z,12.07
2019-05-21T04:25:39.345Z,11.57
2019-05-21T04:29:26.753Z,11.90
2019-05-21T04:44:30.445Z,10.77
2019-05-21T04:48:23.025Z,13.17
2019-05-21T04:54:45.608Z,12.57
2019-05-21T04:57:43.162Z,13.40
2019-05-21T05:00:51.105Z,12.70
2019-05-21T05:04:00.549Z,11.50
2019-05-21T05:06:32.749Z,13.57
2019-05-21T05:09:34.553Z,13.93
2019-05-21T05:32:00.637Z,16.17
2019-05-21T05:34:28.659Z,14.77
2019-05-21T05:36:56.888Z,16.00
2019-05-21T05:39:24.942Z,15.60
2019-05-21T05:41:52.981Z,15.50
2019-05-21T05:44:21.016Z,15.37
2019-05-21T05:46:49.048Z,15.97
2019-05-21T05:49:22.454Z,16.27
2019-05-21T05:51:50.701Z,15.70
2019-05-21T05:54:18.850Z,16.77
2019-05-21T05:56:46.890Z,16.83
2019-05-21T05:59:14.950Z,16.57
2019-05-21T06:01:43.015Z,17.10
2019-05-21T06:04:11.103Z,17.50
2019-05-21T06:06:39.145Z,18.23
2019-05-21T06:09:07.177Z,18.83
2019-05-21T06:11:35.270Z,18.37
2019-05-21T06:14:03.419Z,18.27
2019-05-21T06:16:31.475Z,18.23
2019-05-21T06:18:59.514Z,18.37
2019-05-21T06:21:27.573Z,18.53
2019-05-21T06:23:55.658Z,18.30
2019-05-21T06:26:23.787Z,19.00
2019-05-21T06:28:51.854Z,19.03
2019-05-21T06:31:19.891Z,18.97
2019-05-21T06:33:47.992Z,18.13
2019-05-21T06:36:16.885Z,18.90
2019-05-21T06:38:44.957Z,17.30
2019-05-21T06:41:13.003Z,19.27
2019-05-21T06:43:41.041Z,19.00
2019-05-21T06:46:09.161Z,18.50
2019-05-21T06:48:37.211Z,19.03
2019-05-21T06:51:07.180Z,21.10
2019-05-21T06:53:34.871Z,21.33
2019-05-21T06:56:06.954Z,20.27
2019-05-21T06:58:32.607Z,20.63
2019-05-21T07:01:00.668Z,19.63
2019-05-21T07:03:28.754Z,19.70
2019-05-21T07:05:59.350Z,21.10
2019-05-21T07:08:34.518Z,20.23
2019-05-21T07:10:56.370Z,19.80
2019-05-21T07:13:24.421Z,20.37
2019-05-21T07:15:52.481Z,19.43
2019-05-21T07:18:47.480Z,19.27
2019-05-21T07:21:15.521Z,20.10
2019-05-21T07:23:43.608Z,20.10
2019-05-21T07:26:49.024Z,20.90
2019-05-21T07:29:17.047Z,20.77
2019-05-21T07:31:45.292Z,22.63
2019-05-21T07:34:49.769Z,22.90
2019-05-21T07:37:17.803Z,23.83
2019-05-21T07:40:06.727Z,23.40
2019-05-21T07:42:35.238Z,23.27
2019-05-21T07:45:03.977Z,22.60
2019-05-21T07:47:32.369Z,23.23
2019-05-21T07:50:00.790Z,22.37
2019-05-21T07:52:29.375Z,22.73
2019-05-21T07:54:58.064Z,23.27
2019-05-21T07:57:26.302Z,22.23
2019-05-21T07:59:54.361Z,24.07
2019-05-21T08:02:22.856Z,25.37
2019-05-21T08:04:51.005Z,22.67
2019-05-21T08:07:19.109Z,22.90
2019-05-21T08:09:47.296Z,24.27
2019-05-21T08:12:35.374Z,24.03
2019-05-21T08:14:45.004Z,23.37
2019-05-21T08:17:13.065Z,22.57
2019-05-21T08:19:41.184Z,23.63
2019-05-21T08:22:09.324Z,22.77
2019-05-21T08:24:40.103Z,23.77
2019-05-21T08:27:08.276Z,24.10
2019-05-21T08:29:36.376Z,24.60
2019-05-21T08:32:04.372Z,22.33
2019-05-21T08:34:32.395Z,23.60
2019-05-21T08:37:00.494Z,21.83
2019-05-21T08:39:29.379Z,23.03
2019-05-21T08:41:57.575Z,23.00
2019-05-21T08:44:25.601Z,22.17
2019-05-21T08:46:53.621Z,21.73
2019-05-21T08:49:21.680Z,21.77
2019-05-21T08:51:49.729Z,23.70
2019-05-21T08:54:36.769Z,21.33
2019-05-21T08:57:04.787Z,21.03
2019-05-21T08:59:33.125Z,22.20
2019-05-21T09:02:01.160Z,18.97
2019-05-21T09:04:45.339Z,19.07
2019-05-21T09:06:58.921Z,18.03
2019-05-21T09:09:27.091Z,17.60
2019-05-21T09:12:37.285Z,18.23
2019-05-21T09:15:05.755Z,16.70
2019-05-21T09:17:33.904Z,17.80
2019-05-21T09:20:01.998Z,18.13
2019-05-21T09:22:30.380Z,18.17
2019-05-21T09:24:58.525Z,18.57
2019-05-21T09:27:27.180Z,18.43
2019-05-21T09:29:55.291Z,19.40
2019-05-21T09:32:23.346Z,19.23
2019-05-21T09:34:51.417Z,19.17
2019-05-21T09:37:20.538Z,20.57
2019-05-21T09:39:48.914Z,19.77
2019-05-21T09:42:16.959Z,19.77
2019-05-21T09:44:45.208Z,20.87
2019-05-21T09:47:13.264Z,19.77
2019-05-21T09:49:41.370Z,20.20
2019-05-21T09:52:09.383Z,20.03
2019-05-21T09:54:37.446Z,19.70
2019-05-21T09:57:07.140Z,20.87
2019-05-21T09:59:43.257Z,20.23
2019-05-21T10:02:14.407Z,19.73
2019-05-21T10:04:42.469Z,19.57
2019-05-21T10:07:10.796Z,19.60
2019-05-21T10:09:38.893Z,20.67
2019-05-21T10:12:07.380Z,21.00
2019-05-21T10:14:35.411Z,19.77
2019-05-21T10:17:03.513Z,19.67
2019-05-21T10:19:31.583Z,19.47
2019-05-21T10:21:59.692Z,18.83
2019-05-21T10:24:28.562Z,19.80
2019-05-21T10:26:56.913Z,19.67
2019-05-21T10:29:25.143Z,20.00
2019-05-21T10:31:54.002Z,20.60
2019-05-21T10:34:23.050Z,20.90
2019-05-21T10:36:51.867Z,19.07
2019-05-21T10:39:20.409Z,19.63
2019-05-21T10:41:48.552Z,21.57
2019-05-21T10:44:16.860Z,21.33
2019-05-21T10:46:45.281Z,19.97
2019-05-21T10:49:13.546Z,19.13
2019-05-21T10:51:41.809Z,19.43
2019-05-21T10:54:09.922Z,19.53
2019-05-21T10:56:47.277Z,18.67
2019-05-21T10:59:07.780Z,19.10
2019-05-21T11:02:13.230Z,18.63
2019-05-21T11:05:06.207Z,18.43
2019-05-21T11:07:34.350Z,20.23
2019-05-21T11:10:02.606Z,20.20
2019-05-21T11:12:30.831Z,18.10
2019-05-21T11:14:59.009Z,19.03
2019-05-21T11:17:27.162Z,19.67
2019-05-21T11:19:55.198Z,18.83
2019-05-21T11:22:23.889Z,19.10
2019-05-21T11:24:51.956Z,18.63
2019-05-21T11:27:20.167Z,18.20
2019-05-21T11:29:48.203Z,18.93
2019-05-21T11:32:16.375Z,19.43
2019-05-21T11:34:44.485Z,19.83
2019-05-21T11:37:12.546Z,22.23
2019-05-21T11:39:40.658Z,21.70
2019-05-21T11:42:09.083Z,21.10
2019-05-21T11:44:37.438Z,20.77
2019-05-21T11:47:05.645Z,20.10
2019-05-21T11:49:34.271Z,19.00
2019-05-21T11:52:02.416Z,20.93
2019-05-21T11:54:30.974Z,19.40
2019-05-21T11:56:59.581Z,20.47
2019-05-21T11:59:28.885Z,21.40
2019-05-21T12:01:57.119Z,20.07
2019-05-21T12:04:25.912Z,19.63
2019-05-21T12:06:53.911Z,20.00
2019-05-21T12:09:22.655Z,20.77
2019-05-21T12:11:51.220Z,20.60
2019-05-21T12:14:19.737Z,19.40
2019-05-21T12:16:48.087Z,20.20
2019-05-21T12:19:16.148Z,19.20
2019-05-21T12:21:44.457Z,20.27
2019-05-21T12:24:13.129Z,20.33
2019-05-21T12:26:41.328Z,19.20
2019-05-21T12:29:09.501Z,19.40
2019-05-21T12:31:38.580Z,19.27
2019-05-21T12:34:06.644Z,20.27
2019-05-21T12:36:34.838Z,19.70
2019-05-21T12:39:13.665Z,19.63
2019-05-21T12:41:32.731Z,22.93
2019-05-21T12:44:01.014Z,20.23
2019-05-21T12:46:29.188Z,19.23
2019-05-21T12:49:09.675Z,19.67
2019-05-21T12:51:37.820Z,20.37
2019-05-21T12:54:05.986Z,20.80
2019-05-21T12:56:34.777Z,20.33
2019-05-21T12:59:03.709Z,23.27
2019-05-21T13:01:32.024Z,23.13
2019-05-21T13:04:00.265Z,25.23
2019-05-21T13:06:28.311Z,25.30
2019-05-21T13:08:56.485Z,24.50
2019-05-21T13:11:24.867Z,25.80
2019-05-21T13:17:02.622Z,27.27
2019-05-21T13:19:30.700Z,26.20
2019-05-21T13:21:58.764Z,28.77
2019-05-21T13:24:27.006Z,26.57
2019-05-21T13:26:55.299Z,24.73
2019-05-21T13:29:23.378Z,24.97
2019-05-21T13:31:51.496Z,24.27
2019-05-21T13:34:19.635Z,25.80
2019-05-21T13:36:47.768Z,25.47
2019-05-21T13:39:16.058Z,25.77
2019-05-21T13:41:44.197Z,26.57
2019-05-21T13:44:21.386Z,30.10
2019-05-21T13:46:49.469Z,29.47
2019-05-21T13:49:17.560Z,25.87
2019-05-21T13:51:45.716Z,25.00
2019-05-21T13:54:13.842Z,25.23
2019-05-21T13:56:41.903Z,22.53
2019-05-21T13:59:10.598Z,24.90
2019-05-21T14:01:41.279Z,24.93
2019-05-21T14:04:08.906Z,23.10
2019-05-21T14:06:37.079Z,22.80
2019-05-21T14:09:06.245Z,22.23
2019-05-21T14:11:34.385Z,21.80
2019-05-21T14:14:02.466Z,22.13
2019-05-21T14:16:34.625Z,22.27
2019-05-21T14:19:01.303Z,22.30
2019-05-21T14:21:29.426Z,22.10
2019-05-21T14:23:57.495Z,22.73
2019-05-21T14:26:25.742Z,22.33
2019-05-21T14:28:53.781Z,22.97
2019-05-21T14:31:21.990Z,23.03
2019-05-21T14:33:50.032Z,24.73
2019-05-21T14:36:18.123Z,22.73
2019-05-21T14:38:46.268Z,23.37
2019-05-21T14:41:14.399Z,23.77
2019-05-21T14:43:42.451Z,23.03
2019-05-21T14:46:10.531Z,23.07
2019-05-21T14:48:38.793Z,23.17
2019-05-21T14:51:06.955Z,23.77
2019-05-21T14:53:35.144Z,24.33
2019-05-21T14:56:03.203Z,24.60
2019-05-21T14:58:31.298Z,24.10
2019-05-21T15:00:59.435Z,24.47
2019-05-21T15:03:29.467Z,23.87
2019-05-21T15:05:57.153Z,24.53
2019-05-21T15:08:25.204Z,25.80
2019-05-21T15:10:53.250Z,25.73
2019-05-21T15:13:21.431Z,25.03
2019-05-21T15:15:49.499Z,24.23
2019-05-21T15:18:22.094Z,25.00
2019-05-21T15:20:55.275Z,25.30
2019-05-21T15:23:23.350Z,25.90
2019-05-21T15:25:51.451Z,25.10
2019-05-21T15:28:19.609Z,23.60
2019-05-21T15:30:47.670Z,25.07
2019-05-21T15:33:15.773Z,23.37
2019-05-21T15:35:43.866Z,21.53
2019-05-21T15:38:11.911Z,22.60
2019-05-21T15:40:40.050Z,22.47
2019-05-21T15:43:08.075Z,21.60
2019-05-21T15:45:36.343Z,19.93
2019-05-21T15:48:04.422Z,18.73
2019-05-21T15:50:32.482Z,22.47
2019-05-21T15:53:00.530Z,17.00
2019-05-21T15:55:28.732Z,17.93
2019-05-21T15:57:56.758Z,15.13
2019-05-21T16:00:25.006Z,13.23
2019-05-21T16:02:53.127Z,13.80
2019-05-21T16:05:21.509Z,12.37
2019-05-21T16:07:49.527Z,13.27
2019-05-21T16:10:17.763Z,12.73
2019-05-21T16:12:48.663Z,11.40
2019-05-21T16:15:17.199Z,11.13
2019-05-21T16:17:45.402Z,11.03
2019-05-21T16:20:13.615Z,11.00
2019-05-21T16:22:42.283Z,10.57
2019-05-21T16:25:10.564Z,10.53
2019-05-21T16:27:38.759Z,11.40
2019-05-21T16:30:07.338Z,11.13
2019-05-21T16:32:35.474Z,11.13
2019-05-21T16:35:03.728Z,12.40
2019-05-21T16:37:33.222Z,12.93
2019-05-21T16:40:01.718Z,16.83
2019-05-21T16:42:30.207Z,14.43
2019-05-21T16:44:58.514Z,11.73
2019-05-21T16:47:43.555Z,12.07
2019-05-21T16:49:56.282Z,11.33
2019-05-21T16:52:24.385Z,11.60
2019-05-21T16:54:52.692Z,11.87
2019-05-21T16:57:21.688Z,11.67
2019-05-21T16:59:49.738Z,10.80
2019-05-21T17:02:17.833Z,11.40
2019-05-21T17:04:45.998Z,14.07
2019-05-21T17:07:14.294Z,12.60
2019-05-21T17:09:42.550Z,11.57
2019-05-21T17:12:10.946Z,11.67
2019-05-21T17:14:39.123Z,11.33
2019-05-21T17:17:07.351Z,13.20
2019-05-21T17:19:35.579Z,13.27
2019-05-21T17:22:06.858Z,11.30
2019-05-21T17:24:34.949Z,11.73
2019-05-21T17:27:05.304Z,11.77
2019-05-21T17:29:33.828Z,11.80
2019-05-21T17:32:06.334Z,11.63
2019-05-21T17:34:33.275Z,13.97
2019-05-21T17:37:07.540Z,13.50
2019-05-21T17:39:36.779Z,15.67
2019-05-21T17:42:15.036Z,13.90
2019-05-21T17:44:37.096Z,15.60
2019-05-21T17:47:05.851Z,14.93
2019-05-21T17:52:57.221Z,16.40
2019-05-21T17:55:25.858Z,22.80
2019-05-21T17:57:55.430Z,20.30
2019-05-21T18:00:41.592Z,17.50
2019-05-21T18:03:10.734Z,15.17
2019-05-21T18:05:39.760Z,15.07
2019-05-21T18:08:09.142Z,17.27
2019-05-21T18:10:37.846Z,16.17
2019-05-21T18:13:07.087Z,16.90
2019-05-21T18:15:36.548Z,15.50
2019-05-21T18:18:05.096Z,17.80
2019-05-21T18:20:33.778Z,16.07
2019-05-21T18:23:02.603Z,15.83
2019-05-21T18:25:31.056Z,15.73
2019-05-21T18:27:59.141Z,17.87
2019-05-21T18:30:27.538Z,20.43
2019-05-21T18:32:56.327Z,16.77
2019-05-21T18:38:46.732Z,16.20
2019-05-21T18:41:15.730Z,15.20
2019-05-21T18:43:46.280Z,15.60
2019-05-21T18:46:14.274Z,13.70
2019-05-21T18:49:18.541Z,11.90
2019-05-21T18:51:46.810Z,12.43
2019-05-21T18:54:15.034Z,12.03
2019-05-21T18:56:43.370Z,11.47
2019-05-21T18:59:11.468Z,11.63
2019-05-21T19:01:39.700Z,11.90
2019-05-21T19:04:36.373Z,12.33
2019-05-21T19:07:05.021Z,14.23
2019-05-21T19:09:33.290Z,14.67
2019-05-21T19:12:01.433Z,13.40
2019-05-21T19:15:05.560Z,15.07
2019-05-21T19:17:35.889Z,14.57
2019-05-21T19:20:04.296Z,16.13
2019-05-21T19:22:32.898Z,15.27
2019-05-21T19:25:03.184Z,14.57
2019-05-21T19:27:31.820Z,12.97
2019-05-21T19:32:53.534Z,12.47
2019-05-21T19:35:23.631Z,13.93
2019-05-21T19:40:49.223Z,11.10
2019-05-21T19:43:17.350Z,11.70
2019-05-21T19:46:12.666Z,11.27
2019-05-21T19:48:41.126Z,11.47
2019-05-21T19:51:10.610Z,10.93
2019-05-21T19:53:40.033Z,12.67
2019-05-21T19:56:08.050Z,10.23
2019-05-21T20:01:47.413Z,11.30
2019-05-21T20:04:46.306Z,10.50
2019-05-21T20:07:16.373Z,11.33
2019-05-21T20:09:46.561Z,12.17
2019-05-21T20:12:15.554Z,13.23
2019-05-21T20:14:45.290Z,12.03
2019-05-21T20:17:15.632Z,12.93
2019-05-21T20:19:46.267Z,13.33
2019-05-21T20:22:15.423Z,12.63
2019-05-21T20:24:44.834Z,12.93
2019-05-21T20:27:13.315Z,12.73
2019-05-21T20:29:41.800Z,13.27
2019-05-21T20:32:10.391Z,13.10
2019-05-21T20:34:39.879Z,12.20
2019-05-21T20:37:10.341Z,11.80
2019-05-21T20:39:41.322Z,12.03
2019-05-21T20:42:10.117Z,13.07
2019-05-21T20:44:39.319Z,12.20
2019-05-21T20:47:09.656Z,14.10
2019-05-21T20:49:38.666Z,13.47
2019-05-21T20:52:18.179Z,13.40
2019-05-21T20:54:38.333Z,13.87
2019-05-21T20:57:08.144Z,14.17
2019-05-21T20:59:36.431Z,14.00
2019-05-21T21:02:08.639Z,13.47
2019-05-21T21:04:35.897Z,13.77
2019-05-21T21:07:05.532Z,12.53
2019-05-21T21:09:34.302Z,13.40
2019-05-21T21:15:24.796Z,12.20
2019-05-21T21:17:53.791Z,12.53
2019-05-21T21:20:21.998Z,12.97
2019-05-21T21:22:50.110Z,13.37
2019-05-21T21:25:22.568Z,13.63
2019-05-21T21:27:51.549Z,13.87
2019-05-21T21:30:20.225Z,13.50
2019-05-21T21:32:49.136Z,13.03
2019-05-21T21:35:17.870Z,12.97
2019-05-21T21:37:47.015Z,13.97
2019-05-21T21:40:17.447Z,11.87
2019-05-21T21:42:46.491Z,12.07
2019-05-21T21:45:15.836Z,13.07
2019-05-21T21:47:44.504Z,12.23
2019-05-21T21:50:13.434Z,10.23
2019-05-21T21:52:42.504Z,9.43
2019-05-21T21:55:11.116Z,9.53
2019-05-21T21:57:39.476Z,9.87
2019-05-21T22:00:11.522Z,10.13
2019-05-21T22:02:40.095Z,9.57
2019-05-21T22:05:09.402Z,11.17
2019-05-21T22:07:38.614Z,10.50
2019-05-21T22:10:06.881Z,10.00
2019-05-21T22:12:35.101Z,10.53
2019-05-21T22:15:04.034Z,11.00
2019-05-21T22:17:32.258Z,10.37
2019-05-21T22:20:00.447Z,11.30
2019-05-21T22:22:28.654Z,11.33
2019-05-21T22:24:57.533Z,10.90
2019-05-21T22:27:26.386Z,11.53
2019-05-21T22:29:54.703Z,11.47
2019-05-21T22:32:23.382Z,11.30
2019-05-21T22:34:52.427Z,11.57
2019-05-21T22:37:23.514Z,11.10
2019-05-21T22:39:52.158Z,11.00
2019-05-21T22:42:21.083Z,11.77
2019-05-21T22:44:49.446Z,11.57
2019-05-21T22:47:17.887Z,12.53
2019-05-21T22:49:45.982Z,12.87
2019-05-21T22:52:14.430Z,12.73
2019-05-21T22:54:43.368Z,12.67
2019-05-21T22:57:11.506Z,11.97
2019-05-21T22:59:39.546Z,13.30
2019-05-21T23:02:11.747Z,13.37
2019-05-21T23:04:40.149Z,13.77
2019-05-21T23:07:08.154Z,14.43
2019-05-21T23:09:36.819Z,14.30
2019-05-21T23:12:05.105Z,14.33
2019-05-21T23:14:33.240Z,14.53
2019-05-21T23:17:01.735Z,14.83
2019-05-21T23:19:30.620Z,14.90
2019-05-21T23:21:59.062Z,14.83
2019-05-21T23:24:27.430Z,15.43
2019-05-21T23:26:55.458Z,16.67
2019-05-21T23:29:24.036Z,17.10
2019-05-21T23:31:52.187Z,16.53
2019-05-21T23:34:20.666Z,16.87
2019-05-21T23:36:49.234Z,16.80
2019-05-21T23:39:21.678Z,16.47
2019-05-21T23:41:50.407Z,15.77
2019-05-21T23:44:18.870Z,15.67
2019-05-21T23:46:47.051Z,15.57
2019-05-21T23:49:15.227Z,14.43
2019-05-21T23:51:43.256Z,13.47
2019-05-21T23:54:12.078Z,13.47
2019-05-21T23:56:40.208Z,14.10
2019-05-21T23:59:09.088Z,13.37
